KMRB

Eastern Wv Regional / Shepherd Field Airport

Martinsburg, West Virginia, USA
METAR KMRB 250453Z AUTO 00000KT 10SM CLR 14/12 A3012 RMK AO2 SLP195 T01390117 402830111
Observed Flight Rules
May-25 @ 04:53 UTC (30 minutes ago) Visual Flight Rules
Visibility Clouds
10 miles
  • Clear skies
Temperatures Readings
Current 14°C / 57°F
Dewpoint 12°C / 54°F
Humidity 88%
Altimeter 30.12" Hg
Pressure 1019.5 hPa
Elevation 164
METAR KMRB 250453Z AUTO 00000KT 10SM CLR 14/12 A3012 RMK AO2 SLP195 T01390117 402830111
Observed Flight Rules
May-25 @ 04:53 UTC
(30 minutes ago)
VFR
Clouds
  • Clear skies
Temperature Dewpoint
14°C / 57°F 12°C / 54°F
Humidity Altimeter Pressure
88% 30.12" Hg 1019.5 hPa